sensor_id;sensor_type;location;lat;lon;timestamp;P1;durP1;ratioP1;P2;durP2;ratioP2
44720;SDS011;30450;52.534;13.398;2023-03-01T00:02:01;23.63;;;15.00;;
44720;SDS011;30450;52.534;13.398;2023-03-01T00:04:27;25.98;;;14.95;;
44720;SDS011;30450;52.534;13.398;2023-03-01T00:06:53;25.95;;;14.50;;
44720;SDS011;30450;52.534;13.398;2023-03-01T00:09:19;29.65;;;15.45;;
44720;SDS011;30450;52.534;13.398;2023-03-01T00:11:45;26.42;;;15.18;;
44720;SDS011;30450;52.534;13.398;2023-03-01T00:14:10;25.52;;;15.40;;
44720;SDS011;30450;52.534;13.398;2023-03-01T00:16:38;26.23;;;15.32;;
44720;SDS011;30450;52.534;13.398;2023-03-01T00:19:05;30.15;;;15.68;;
44720;SDS011;30450;52.534;13.398;2023-03-01T00:21:31;26.40;;;15.07;;
44720;SDS011;30450;52.534;13.398;2023-03-01T00:23:57;22.80;;;13.93;;
44720;SDS011;30450;52.534;13.398;2023-03-01T00:26:23;27.98;;;14.73;;
44720;SDS011;30450;52.534;13.398;2023-03-01T00:28:49;24.42;;;14.10;;
44720;SDS011;30450;52.534;13.398;2023-03-01T00:31:16;27.15;;;15.07;;
44720;SDS011;30450;52.534;13.398;2023-03-01T00:33:43;34.33;;;15.05;;
44720;SDS011;30450;52.534;13.398;2023-03-01T00:36:09;25.10;;;13.75;;
44720;SDS011;30450;52.534;13.398;2023-03-01T00:38:36;23.75;;;13.68;;
44720;SDS011;30450;52.534;13.398;2023-03-01T00:41:03;21.35;;;13.90;;
44720;SDS011;30450;52.534;13.398;2023-03-01T00:43:29;24.83;;;14.70;;
44720;SDS011;30450;52.534;13.398;2023-03-01T00:45:56;29.10;;;15.38;;
44720;SDS011;30450;52.534;13.398;2023-03-01T00:48:26;22.33;;;13.40;;
44720;SDS011;30450;52.534;13.398;2023-03-01T00:50:51;26.02;;;14.55;;
44720;SDS011;30450;52.534;13.398;2023-03-01T00:53:17;26.05;;;14.70;;
44720;SDS011;30450;52.534;13.398;2023-03-01T00:55:43;31.45;;;16.38;;
44720;SDS011;30450;52.534;13.398;2023-03-01T00:58:08;27.13;;;15.52;;
44720;SDS011;30450;52.534;13.398;2023-03-01T01:00:34;29.65;;;15.40;;
44720;SDS011;30450;52.534;13.398;2023-03-01T01:03:00;28.85;;;15.45;;
44720;SDS011;30450;52.534;13.398;2023-03-01T01:05:25;27.27;;;15.52;;
44720;SDS011;30450;52.534;13.398;2023-03-01T01:07:51;26.35;;;14.70;;
44720;SDS011;30450;52.534;13.398;2023-03-01T01:10:17;30.10;;;15.10;;
44720;SDS011;30450;52.534;13.398;2023-03-01T01:12:44;23.77;;;14.57;;
44720;SDS011;30450;52.534;13.398;2023-03-01T01:15:10;24.95;;;15.05;;
44720;SDS011;30450;52.534;13.398;2023-03-01T01:17:38;30.45;;;15.38;;
44720;SDS011;30450;52.534;13.398;2023-03-01T01:20:04;31.40;;;15.05;;
44720;SDS011;30450;52.534;13.398;2023-03-01T01:22:30;29.77;;;16.02;;
44720;SDS011;30450;52.534;13.398;2023-03-01T01:24:55;27.60;;;16.65;;
44720;SDS011;30450;52.534;13.398;2023-03-01T01:27:21;23.70;;;15.23;;
44720;SDS011;30450;52.534;13.398;2023-03-01T01:29:47;34.05;;;18.10;;
44720;SDS011;30450;52.534;13.398;2023-03-01T01:32:13;30.75;;;16.70;;
44720;SDS011;30450;52.534;13.398;2023-03-01T01:34:39;26.27;;;17.02;;
44720;SDS011;30450;52.534;13.398;2023-03-01T01:37:05;31.90;;;16.33;;
44720;SDS011;30450;52.534;13.398;2023-03-01T01:39:34;27.00;;;15.95;;
44720;SDS011;30450;52.534;13.398;2023-03-01T01:42:00;31.23;;;16.92;;
44720;SDS011;30450;52.534;13.398;2023-03-01T01:44:27;24.70;;;15.88;;
44720;SDS011;30450;52.534;13.398;2023-03-01T01:46:57;28.42;;;16.35;;
44720;SDS011;30450;52.534;13.398;2023-03-01T01:49:26;33.35;;;17.95;;
44720;SDS011;30450;52.534;13.398;2023-03-01T01:52:00;30.35;;;17.05;;
44720;SDS011;30450;52.534;13.398;2023-03-01T01:54:29;31.48;;;17.75;;
44720;SDS011;30450;52.534;13.398;2023-03-01T01:59:21;29.95;;;17.05;;
44720;SDS011;30450;52.534;13.398;2023-03-01T02:01:51;23.35;;;15.00;;
44720;SDS011;30450;52.534;13.398;2023-03-01T02:04:17;27.52;;;15.80;;
44720;SDS011;30450;52.534;13.398;2023-03-01T02:06:45;29.63;;;16.60;;
44720;SDS011;30450;52.534;13.398;2023-03-01T02:09:12;30.08;;;16.45;;
44720;SDS011;30450;52.534;13.398;2023-03-01T02:11:38;24.90;;;15.63;;
44720;SDS011;30450;52.534;13.398;2023-03-01T02:14:04;29.85;;;17.27;;
44720;SDS011;30450;52.534;13.398;2023-03-01T02:16:30;25.92;;;15.23;;
44720;SDS011;30450;52.534;13.398;2023-03-01T02:18:56;26.92;;;16.05;;
44720;SDS011;30450;52.534;13.398;2023-03-01T02:24:21;28.75;;;17.23;;
44720;SDS011;30450;52.534;13.398;2023-03-01T02:26:51;27.38;;;16.23;;
44720;SDS011;30450;52.534;13.398;2023-03-01T02:29:18;29.17;;;16.85;;
44720;SDS011;30450;52.534;13.398;2023-03-01T02:31:44;29.17;;;16.08;;
44720;SDS011;30450;52.534;13.398;2023-03-01T02:34:12;27.58;;;14.02;;
44720;SDS011;30450;52.534;13.398;2023-03-01T02:36:48;24.50;;;14.10;;
44720;SDS011;30450;52.534;13.398;2023-03-01T02:39:15;27.65;;;14.50;;
44720;SDS011;30450;52.534;13.398;2023-03-01T02:41:43;22.02;;;12.85;;
44720;SDS011;30450;52.534;13.398;2023-03-01T02:44:09;22.05;;;13.40;;
44720;SDS011;30450;52.534;13.398;2023-03-01T02:46:41;21.92;;;13.48;;
44720;SDS011;30450;52.534;13.398;2023-03-01T02:49:24;25.23;;;13.32;;
44720;SDS011;30450;52.534;13.398;2023-03-01T02:54:28;23.95;;;13.35;;
44720;SDS011;30450;52.534;13.398;2023-03-01T02:56:55;28.38;;;14.18;;
44720;SDS011;30450;52.534;13.398;2023-03-01T02:59:22;20.17;;;13.32;;
44720;SDS011;30450;52.534;13.398;2023-03-01T03:01:49;28.35;;;15.27;;
44720;SDS011;30450;52.534;13.398;2023-03-01T03:04:16;26.25;;;14.65;;
44720;SDS011;30450;52.534;13.398;2023-03-01T03:06:46;23.17;;;14.25;;
44720;SDS011;30450;52.534;13.398;2023-03-01T03:09:13;28.77;;;14.07;;
44720;SDS011;30450;52.534;13.398;2023-03-01T03:11:40;28.17;;;15.93;;
44720;SDS011;30450;52.534;13.398;2023-03-01T03:14:07;24.35;;;14.48;;
44720;SDS011;30450;52.534;13.398;2023-03-01T03:16:39;25.08;;;15.48;;
44720;SDS011;30450;52.534;13.398;2023-03-01T03:19:05;26.30;;;14.30;;
44720;SDS011;30450;52.534;13.398;2023-03-01T03:21:31;28.60;;;15.80;;
44720;SDS011;30450;52.534;13.398;2023-03-01T03:23:57;25.40;;;14.98;;
44720;SDS011;30450;52.534;13.398;2023-03-01T03:26:23;23.63;;;14.40;;
44720;SDS011;30450;52.534;13.398;2023-03-01T03:28:51;25.63;;;14.98;;
44720;SDS011;30450;52.534;13.398;2023-03-01T03:31:17;24.33;;;14.43;;
44720;SDS011;30450;52.534;13.398;2023-03-01T03:33:43;24.10;;;13.93;;
44720;SDS011;30450;52.534;13.398;2023-03-01T03:36:09;26.52;;;15.20;;
44720;SDS011;30450;52.534;13.398;2023-03-01T03:38:38;22.80;;;14.25;;
44720;SDS011;30450;52.534;13.398;2023-03-01T03:41:05;27.40;;;14.27;;
44720;SDS011;30450;52.534;13.398;2023-03-01T03:43:33;24.95;;;14.02;;
44720;SDS011;30450;52.534;13.398;2023-03-01T03:45:59;24.37;;;14.10;;
44720;SDS011;30450;52.534;13.398;2023-03-01T03:48:25;25.95;;;15.57;;
44720;SDS011;30450;52.534;13.398;2023-03-01T03:50:52;22.95;;;14.02;;
44720;SDS011;30450;52.534;13.398;2023-03-01T03:53:22;25.17;;;14.40;;
44720;SDS011;30450;52.534;13.398;2023-03-01T03:55:48;26.63;;;13.75;;
44720;SDS011;30450;52.534;13.398;2023-03-01T03:58:15;25.13;;;13.52;;
44720;SDS011;30450;52.534;13.398;2023-03-01T04:00:42;21.98;;;13.10;;
44720;SDS011;30450;52.534;13.398;2023-03-01T04:03:09;20.50;;;13.40;;
44720;SDS011;30450;52.534;13.398;2023-03-01T04:05:35;24.23;;;13.73;;
44720;SDS011;30450;52.534;13.398;2023-03-01T04:08:01;21.23;;;12.93;;
44720;SDS011;30450;52.534;13.398;2023-03-01T04:10:33;22.27;;;13.90;;
44720;SDS011;30450;52.534;13.398;2023-03-01T04:12:59;24.88;;;13.63;;
44720;SDS011;30450;52.534;13.398;2023-03-01T04:15:25;22.30;;;13.63;;
44720;SDS011;30450;52.534;13.398;2023-03-01T04:17:52;25.33;;;13.82;;
44720;SDS011;30450;52.534;13.398;2023-03-01T04:20:20;18.85;;;12.85;;
44720;SDS011;30450;52.534;13.398;2023-03-01T04:22:53;21.30;;;13.13;;
44720;SDS011;30450;52.534;13.398;2023-03-01T04:25:23;20.83;;;13.18;;
44720;SDS011;30450;52.534;13.398;2023-03-01T04:27:49;22.05;;;13.70;;
44720;SDS011;30450;52.534;13.398;2023-03-01T04:30:16;20.30;;;13.25;;
44720;SDS011;30450;52.534;13.398;2023-03-01T04:32:41;22.58;;;13.10;;
44720;SDS011;30450;52.534;13.398;2023-03-01T04:35:07;22.98;;;13.88;;
44720;SDS011;30450;52.534;13.398;2023-03-01T04:37:33;23.05;;;13.40;;
44720;SDS011;30450;52.534;13.398;2023-03-01T04:40:00;25.85;;;12.73;;
44720;SDS011;30450;52.534;13.398;2023-03-01T04:42:26;20.52;;;13.35;;
44720;SDS011;30450;52.534;13.398;2023-03-01T04:44:53;21.55;;;12.93;;
44720;SDS011;30450;52.534;13.398;2023-03-01T04:47:18;25.02;;;12.80;;
44720;SDS011;30450;52.534;13.398;2023-03-01T04:49:44;19.00;;;12.18;;
44720;SDS011;30450;52.534;13.398;2023-03-01T04:52:10;20.13;;;12.55;;
44720;SDS011;30450;52.534;13.398;2023-03-01T04:54:35;20.05;;;12.38;;
44720;SDS011;30450;52.534;13.398;2023-03-01T04:57:02;23.48;;;14.13;;
44720;SDS011;30450;52.534;13.398;2023-03-01T04:59:28;18.65;;;11.93;;
44720;SDS011;30450;52.534;13.398;2023-03-01T05:01:55;21.10;;;12.70;;
44720;SDS011;30450;52.534;13.398;2023-03-01T05:04:21;20.60;;;12.65;;
44720;SDS011;30450;52.534;13.398;2023-03-01T05:06:47;23.70;;;13.43;;
44720;SDS011;30450;52.534;13.398;2023-03-01T05:09:13;23.45;;;13.15;;
44720;SDS011;30450;52.534;13.398;2023-03-01T05:11:39;26.17;;;12.95;;
44720;SDS011;30450;52.534;13.398;2023-03-01T05:14:05;24.92;;;12.80;;
44720;SDS011;30450;52.534;13.398;2023-03-01T05:16:31;23.65;;;13.20;;
44720;SDS011;30450;52.534;13.398;2023-03-01T05:18:58;20.92;;;13.65;;
44720;SDS011;30450;52.534;13.398;2023-03-01T05:21:24;23.35;;;14.35;;
44720;SDS011;30450;52.534;13.398;2023-03-01T05:23:50;22.30;;;14.57;;
44720;SDS011;30450;52.534;13.398;2023-03-01T05:26:16;23.48;;;13.88;;
44720;SDS011;30450;52.534;13.398;2023-03-01T05:28:43;26.77;;;14.40;;
44720;SDS011;30450;52.534;13.398;2023-03-01T05:31:08;29.23;;;16.02;;
44720;SDS011;30450;52.534;13.398;2023-03-01T05:33:40;27.52;;;15.25;;
44720;SDS011;30450;52.534;13.398;2023-03-01T05:36:07;26.13;;;14.77;;
44720;SDS011;30450;52.534;13.398;2023-03-01T05:38:33;28.20;;;17.00;;
44720;SDS011;30450;52.534;13.398;2023-03-01T05:40:59;33.05;;;16.60;;
44720;SDS011;30450;52.534;13.398;2023-03-01T05:43:25;26.83;;;14.35;;
44720;SDS011;30450;52.534;13.398;2023-03-01T05:45:51;27.88;;;16.13;;
44720;SDS011;30450;52.534;13.398;2023-03-01T05:48:17;29.10;;;16.33;;
44720;SDS011;30450;52.534;13.398;2023-03-01T05:50:44;24.38;;;15.68;;
44720;SDS011;30450;52.534;13.398;2023-03-01T05:53:17;29.80;;;17.13;;
44720;SDS011;30450;52.534;13.398;2023-03-01T05:55:44;26.15;;;15.68;;
44720;SDS011;30450;52.534;13.398;2023-03-01T05:58:14;25.65;;;15.98;;
44720;SDS011;30450;52.534;13.398;2023-03-01T06:00:40;25.90;;;15.65;;
44720;SDS011;30450;52.534;13.398;2023-03-01T06:03:06;25.05;;;15.70;;
44720;SDS011;30450;52.534;13.398;2023-03-01T06:05:32;27.10;;;15.38;;
44720;SDS011;30450;52.534;13.398;2023-03-01T06:07:58;29.48;;;15.98;;
44720;SDS011;30450;52.534;13.398;2023-03-01T06:10:24;29.52;;;15.63;;
44720;SDS011;30450;52.534;13.398;2023-03-01T06:12:50;26.42;;;14.98;;
44720;SDS011;30450;52.534;13.398;2023-03-01T06:15:15;23.48;;;13.18;;
44720;SDS011;30450;52.534;13.398;2023-03-01T06:17:42;24.17;;;13.70;;
44720;SDS011;30450;52.534;13.398;2023-03-01T06:20:16;23.70;;;14.13;;
44720;SDS011;30450;52.534;13.398;2023-03-01T06:22:42;23.05;;;13.82;;
44720;SDS011;30450;52.534;13.398;2023-03-01T06:25:09;24.38;;;13.95;;
44720;SDS011;30450;52.534;13.398;2023-03-01T06:27:35;24.45;;;14.45;;
44720;SDS011;30450;52.534;13.398;2023-03-01T06:30:00;23.42;;;13.52;;
44720;SDS011;30450;52.534;13.398;2023-03-01T06:32:27;25.40;;;15.43;;
44720;SDS011;30450;52.534;13.398;2023-03-01T06:34:53;28.60;;;16.08;;
44720;SDS011;30450;52.534;13.398;2023-03-01T06:37:18;23.83;;;14.27;;
44720;SDS011;30450;52.534;13.398;2023-03-01T06:39:46;23.67;;;16.05;;
44720;SDS011;30450;52.534;13.398;2023-03-01T06:42:11;29.15;;;15.77;;
44720;SDS011;30450;52.534;13.398;2023-03-01T06:44:37;25.17;;;14.48;;
44720;SDS011;30450;52.534;13.398;2023-03-01T06:47:03;25.83;;;14.75;;
44720;SDS011;30450;52.534;13.398;2023-03-01T06:49:29;22.90;;;14.32;;
44720;SDS011;30450;52.534;13.398;2023-03-01T06:51:56;25.42;;;15.00;;
44720;SDS011;30450;52.534;13.398;2023-03-01T06:54:22;25.55;;;15.50;;
44720;SDS011;30450;52.534;13.398;2023-03-01T06:56:48;28.27;;;14.95;;
44720;SDS011;30450;52.534;13.398;2023-03-01T06:59:14;26.50;;;16.30;;
44720;SDS011;30450;52.534;13.398;2023-03-01T07:01:39;26.77;;;17.02;;
44720;SDS011;30450;52.534;13.398;2023-03-01T07:04:08;26.98;;;15.60;;
44720;SDS011;30450;52.534;13.398;2023-03-01T07:06:35;32.28;;;17.05;;
44720;SDS011;30450;52.534;13.398;2023-03-01T07:09:02;26.13;;;15.80;;
44720;SDS011;30450;52.534;13.398;2023-03-01T07:11:27;31.17;;;15.68;;
44720;SDS011;30450;52.534;13.398;2023-03-01T07:13:53;30.33;;;18.08;;
44720;SDS011;30450;52.534;13.398;2023-03-01T07:16:20;26.07;;;17.10;;
44720;SDS011;30450;52.534;13.398;2023-03-01T07:18:46;34.95;;;18.70;;
44720;SDS011;30450;52.534;13.398;2023-03-01T07:21:12;26.60;;;17.65;;
44720;SDS011;30450;52.534;13.398;2023-03-01T07:23:39;31.02;;;19.00;;
44720;SDS011;30450;52.534;13.398;2023-03-01T07:26:04;37.63;;;18.63;;
44720;SDS011;30450;52.534;13.398;2023-03-01T07:28:30;32.47;;;19.75;;
44720;SDS011;30450;52.534;13.398;2023-03-01T07:31:03;38.42;;;24.10;;
44720;SDS011;30450;52.534;13.398;2023-03-01T07:33:28;42.47;;;24.40;;
44720;SDS011;30450;52.534;13.398;2023-03-01T07:35:57;43.15;;;22.52;;
44720;SDS011;30450;52.534;13.398;2023-03-01T07:38:23;41.65;;;24.20;;
44720;SDS011;30450;52.534;13.398;2023-03-01T07:40:49;41.40;;;24.88;;
44720;SDS011;30450;52.534;13.398;2023-03-01T07:43:15;42.88;;;25.58;;
44720;SDS011;30450;52.534;13.398;2023-03-01T07:45:41;35.60;;;20.30;;
44720;SDS011;30450;52.534;13.398;2023-03-01T07:48:07;28.65;;;19.63;;
44720;SDS011;30450;52.534;13.398;2023-03-01T07:50:33;31.33;;;18.65;;
44720;SDS011;30450;52.534;13.398;2023-03-01T07:52:58;37.22;;;19.95;;
44720;SDS011;30450;52.534;13.398;2023-03-01T07:55:24;28.80;;;18.30;;
44720;SDS011;30450;52.534;13.398;2023-03-01T07:57:50;24.60;;;15.70;;
44720;SDS011;30450;52.534;13.398;2023-03-01T08:00:16;30.02;;;17.48;;
44720;SDS011;30450;52.534;13.398;2023-03-01T08:02:42;24.63;;;16.08;;
44720;SDS011;30450;52.534;13.398;2023-03-01T08:05:08;25.08;;;15.32;;
44720;SDS011;30450;52.534;13.398;2023-03-01T08:07:34;23.02;;;14.25;;
44720;SDS011;30450;52.534;13.398;2023-03-01T08:10:00;26.00;;;13.52;;
44720;SDS011;30450;52.534;13.398;2023-03-01T08:12:25;23.17;;;14.48;;
44720;SDS011;30450;52.534;13.398;2023-03-01T08:14:53;20.65;;;12.68;;
44720;SDS011;30450;52.534;13.398;2023-03-01T08:17:20;21.50;;;13.18;;
44720;SDS011;30450;52.534;13.398;2023-03-01T08:19:45;20.33;;;12.02;;
44720;SDS011;30450;52.534;13.398;2023-03-01T08:22:11;22.25;;;11.38;;
44720;SDS011;30450;52.534;13.398;2023-03-01T08:24:37;21.17;;;11.32;;
44720;SDS011;30450;52.534;13.398;2023-03-01T08:27:03;23.40;;;11.65;;
44720;SDS011;30450;52.534;13.398;2023-03-01T08:29:32;25.55;;;11.73;;
44720;SDS011;30450;52.534;13.398;2023-03-01T08:31:58;22.35;;;10.18;;
44720;SDS011;30450;52.534;13.398;2023-03-01T08:34:25;16.15;;;10.45;;
44720;SDS011;30450;52.534;13.398;2023-03-01T08:36:51;23.58;;;10.35;;
44720;SDS011;30450;52.534;13.398;2023-03-01T08:39:18;15.50;;;9.25;;
44720;SDS011;30450;52.534;13.398;2023-03-01T08:41:44;18.73;;;9.18;;
44720;SDS011;30450;52.534;13.398;2023-03-01T08:44:11;15.93;;;8.75;;
44720;SDS011;30450;52.534;13.398;2023-03-01T08:46:38;11.45;;;7.25;;
44720;SDS011;30450;52.534;13.398;2023-03-01T08:49:04;14.98;;;6.22;;
44720;SDS011;30450;52.534;13.398;2023-03-01T08:51:31;9.48;;;7.07;;
44720;SDS011;30450;52.534;13.398;2023-03-01T08:54:05;8.98;;;6.55;;
44720;SDS011;30450;52.534;13.398;2023-03-01T08:56:31;14.30;;;6.35;;
44720;SDS011;30450;52.534;13.398;2023-03-01T08:58:57;11.82;;;5.75;;
44720;SDS011;30450;52.534;13.398;2023-03-01T09:01:23;12.80;;;6.45;;
44720;SDS011;30450;52.534;13.398;2023-03-01T09:03:49;9.43;;;6.53;;
44720;SDS011;30450;52.534;13.398;2023-03-01T09:06:15;11.35;;;6.82;;
44720;SDS011;30450;52.534;13.398;2023-03-01T09:08:42;13.55;;;6.80;;
44720;SDS011;30450;52.534;13.398;2023-03-01T09:11:08;8.30;;;6.20;;
44720;SDS011;30450;52.534;13.398;2023-03-01T09:13:34;11.93;;;6.50;;
44720;SDS011;30450;52.534;13.398;2023-03-01T09:16:01;9.00;;;6.32;;
44720;SDS011;30450;52.534;13.398;2023-03-01T09:18:27;8.38;;;6.38;;
44720;SDS011;30450;52.534;13.398;2023-03-01T09:21:00;14.77;;;7.20;;
44720;SDS011;30450;52.534;13.398;2023-03-01T09:23:26;8.07;;;6.43;;
44720;SDS011;30450;52.534;13.398;2023-03-01T09:25:52;8.45;;;6.38;;
44720;SDS011;30450;52.534;13.398;2023-03-01T09:28:18;8.75;;;6.82;;
44720;SDS011;30450;52.534;13.398;2023-03-01T09:30:44;10.05;;;6.85;;
44720;SDS011;30450;52.534;13.398;2023-03-01T09:33:09;11.05;;;6.68;;
44720;SDS011;30450;52.534;13.398;2023-03-01T09:35:40;10.30;;;6.15;;
44720;SDS011;30450;52.534;13.398;2023-03-01T09:38:11;12.93;;;7.72;;
44720;SDS011;30450;52.534;13.398;2023-03-01T09:40:41;11.97;;;6.33;;
44720;SDS011;30450;52.534;13.398;2023-03-01T09:45:53;12.07;;;6.68;;
44720;SDS011;30450;52.534;13.398;2023-03-01T09:48:21;10.05;;;6.53;;
44720;SDS011;30450;52.534;13.398;2023-03-01T09:50:49;8.45;;;6.47;;
44720;SDS011;30450;52.534;13.398;2023-03-01T09:53:19;10.40;;;4.50;;
44720;SDS011;30450;52.534;13.398;2023-03-01T09:55:58;6.88;;;4.68;;
44720;SDS011;30450;52.534;13.398;2023-03-01T09:58:34;7.07;;;5.28;;
44720;SDS011;30450;52.534;13.398;2023-03-01T10:03:58;6.60;;;4.72;;
44720;SDS011;30450;52.534;13.398;2023-03-01T10:06:26;10.00;;;4.93;;
44720;SDS011;30450;52.534;13.398;2023-03-01T10:13:55;7.15;;;4.75;;
44720;SDS011;30450;52.534;13.398;2023-03-01T10:16:33;6.22;;;4.05;;
44720;SDS011;30450;52.534;13.398;2023-03-01T10:19:00;14.57;;;4.63;;
44720;SDS011;30450;52.534;13.398;2023-03-01T10:21:28;8.73;;;4.95;;
44720;SDS011;30450;52.534;13.398;2023-03-01T10:24:04;10.50;;;4.30;;
44720;SDS011;30450;52.534;13.398;2023-03-01T10:29:04;6.43;;;4.22;;
44720;SDS011;30450;52.534;13.398;2023-03-01T10:34:13;9.68;;;4.45;;
44720;SDS011;30450;52.534;13.398;2023-03-01T10:36:39;8.30;;;4.28;;
44720;SDS011;30450;52.534;13.398;2023-03-01T10:39:11;7.53;;;3.65;;
44720;SDS011;30450;52.534;13.398;2023-03-01T10:42:02;3.83;;;3.35;;
44720;SDS011;30450;52.534;13.398;2023-03-01T10:44:49;4.65;;;3.45;;
44720;SDS011;30450;52.534;13.398;2023-03-01T10:49:51;5.20;;;4.03;;
44720;SDS011;30450;52.534;13.398;2023-03-01T10:52:18;7.00;;;3.47;;
44720;SDS011;30450;52.534;13.398;2023-03-01T10:54:52;7.15;;;3.38;;
44720;SDS011;30450;52.534;13.398;2023-03-01T10:57:27;13.23;;;3.72;;
44720;SDS011;30450;52.534;13.398;2023-03-01T11:00:00;6.07;;;4.00;;
44720;SDS011;30450;52.534;13.398;2023-03-01T11:02:30;12.77;;;3.88;;
44720;SDS011;30450;52.534;13.398;2023-03-01T11:05:03;5.25;;;3.75;;
44720;SDS011;30450;52.534;13.398;2023-03-01T11:07:57;6.63;;;3.28;;
44720;SDS011;30450;52.534;13.398;2023-03-01T11:10:25;7.95;;;4.05;;
44720;SDS011;30450;52.534;13.398;2023-03-01T11:12:52;10.40;;;3.58;;
44720;SDS011;30450;52.534;13.398;2023-03-01T11:15:26;3.70;;;3.10;;
44720;SDS011;30450;52.534;13.398;2023-03-01T11:17:52;7.43;;;3.53;;
44720;SDS011;30450;52.534;13.398;2023-03-01T11:25:12;6.88;;;3.60;;
44720;SDS011;30450;52.534;13.398;2023-03-01T11:32:39;4.22;;;3.28;;
44720;SDS011;30450;52.534;13.398;2023-03-01T11:42:56;7.93;;;4.55;;
44720;SDS011;30450;52.534;13.398;2023-03-01T11:45:25;6.75;;;3.63;;
44720;SDS011;30450;52.534;13.398;2023-03-01T11:48:11;4.78;;;3.83;;
44720;SDS011;30450;52.534;13.398;2023-03-01T11:50:46;7.05;;;3.38;;
44720;SDS011;30450;52.534;13.398;2023-03-01T11:56:04;5.50;;;4.28;;
44720;SDS011;30450;52.534;13.398;2023-03-01T12:19:29;7.43;;;3.38;;
44720;SDS011;30450;52.534;13.398;2023-03-01T12:22:20;7.10;;;3.00;;
44720;SDS011;30450;52.534;13.398;2023-03-01T12:25:01;8.32;;;3.10;;
44720;SDS011;30450;52.534;13.398;2023-03-01T12:30:10;4.72;;;2.95;;
44720;SDS011;30450;52.534;13.398;2023-03-01T12:38:10;15.80;;;3.42;;
44720;SDS011;30450;52.534;13.398;2023-03-01T12:40:53;10.65;;;3.40;;
44720;SDS011;30450;52.534;13.398;2023-03-01T12:46:15;8.63;;;3.08;;
44720;SDS011;30450;52.534;13.398;2023-03-01T12:51:17;6.55;;;3.33;;
44720;SDS011;30450;52.534;13.398;2023-03-01T12:53:46;4.80;;;2.75;;
44720;SDS011;30450;52.534;13.398;2023-03-01T12:56:13;4.57;;;2.80;;
44720;SDS011;30450;52.534;13.398;2023-03-01T12:58:42;9.70;;;2.90;;
44720;SDS011;30450;52.534;13.398;2023-03-01T13:09:06;5.68;;;2.75;;
44720;SDS011;30450;52.534;13.398;2023-03-01T13:11:34;3.25;;;2.35;;
44720;SDS011;30450;52.534;13.398;2023-03-01T13:16:45;12.82;;;3.20;;
44720;SDS011;30450;52.534;13.398;2023-03-01T13:19:21;7.05;;;2.75;;
44720;SDS011;30450;52.534;13.398;2023-03-01T13:21:48;4.45;;;2.38;;
44720;SDS011;30450;52.534;13.398;2023-03-01T13:27:32;5.13;;;2.65;;
44720;SDS011;30450;52.534;13.398;2023-03-01T13:32:24;4.38;;;2.45;;
44720;SDS011;30450;52.534;13.398;2023-03-01T13:37:36;2.47;;;2.28;;
44720;SDS011;30450;52.534;13.398;2023-03-01T13:42:50;5.47;;;2.77;;
44720;SDS011;30450;52.534;13.398;2023-03-01T13:45:19;6.18;;;2.28;;
44720;SDS011;30450;52.534;13.398;2023-03-01T13:47:45;4.35;;;2.50;;
44720;SDS011;30450;52.534;13.398;2023-03-01T13:53:10;2.38;;;1.67;;
44720;SDS011;30450;52.534;13.398;2023-03-01T13:55:43;4.93;;;2.35;;
44720;SDS011;30450;52.534;13.398;2023-03-01T14:01:06;4.68;;;2.67;;
44720;SDS011;30450;52.534;13.398;2023-03-01T14:03:33;3.45;;;1.95;;
44720;SDS011;30450;52.534;13.398;2023-03-01T14:08:26;3.15;;;2.05;;
44720;SDS011;30450;52.534;13.398;2023-03-01T14:19:12;3.50;;;2.20;;
44720;SDS011;30450;52.534;13.398;2023-03-01T14:21:39;4.20;;;2.40;;
44720;SDS011;30450;52.534;13.398;2023-03-01T14:24:05;5.18;;;2.40;;
44720;SDS011;30450;52.534;13.398;2023-03-01T14:26:31;2.90;;;2.13;;
44720;SDS011;30450;52.534;13.398;2023-03-01T14:28:57;4.00;;;2.50;;
44720;SDS011;30450;52.534;13.398;2023-03-01T14:33:55;6.35;;;2.35;;
44720;SDS011;30450;52.534;13.398;2023-03-01T14:36:25;3.53;;;2.40;;
44720;SDS011;30450;52.534;13.398;2023-03-01T14:38:51;3.67;;;2.13;;
44720;SDS011;30450;52.534;13.398;2023-03-01T14:41:22;8.57;;;2.15;;
44720;SDS011;30450;52.534;13.398;2023-03-01T14:43:52;5.97;;;3.10;;
44720;SDS011;30450;52.534;13.398;2023-03-01T14:46:19;5.88;;;2.80;;
44720;SDS011;30450;52.534;13.398;2023-03-01T14:51:12;6.53;;;2.35;;
44720;SDS011;30450;52.534;13.398;2023-03-01T14:53:38;4.43;;;2.58;;
44720;SDS011;30450;52.534;13.398;2023-03-01T14:56:04;3.13;;;2.00;;
44720;SDS011;30450;52.534;13.398;2023-03-01T14:58:31;5.88;;;2.42;;
44720;SDS011;30450;52.534;13.398;2023-03-01T15:00:58;4.30;;;2.15;;
44720;SDS011;30450;52.534;13.398;2023-03-01T15:03:30;4.80;;;2.53;;
44720;SDS011;30450;52.534;13.398;2023-03-01T15:05:56;5.15;;;2.38;;
44720;SDS011;30450;52.534;13.398;2023-03-01T15:08:25;5.90;;;2.63;;
44720;SDS011;30450;52.534;13.398;2023-03-01T15:13:32;3.95;;;2.47;;
44720;SDS011;30450;52.534;13.398;2023-03-01T15:18:30;5.95;;;2.58;;
44720;SDS011;30450;52.534;13.398;2023-03-01T15:20:55;5.35;;;2.42;;
44720;SDS011;30450;52.534;13.398;2023-03-01T15:23:30;6.47;;;2.53;;
44720;SDS011;30450;52.534;13.398;2023-03-01T15:25:56;3.08;;;2.17;;
44720;SDS011;30450;52.534;13.398;2023-03-01T15:28:27;3.95;;;2.30;;
44720;SDS011;30450;52.534;13.398;2023-03-01T15:31:00;4.18;;;2.25;;
44720;SDS011;30450;52.534;13.398;2023-03-01T15:33:36;8.73;;;2.80;;
44720;SDS011;30450;52.534;13.398;2023-03-01T15:36:03;4.60;;;2.30;;
44720;SDS011;30450;52.534;13.398;2023-03-01T15:38:50;3.35;;;1.73;;
44720;SDS011;30450;52.534;13.398;2023-03-01T15:43:44;7.45;;;2.25;;
44720;SDS011;30450;52.534;13.398;2023-03-01T15:46:17;7.30;;;2.53;;
44720;SDS011;30450;52.534;13.398;2023-03-01T15:48:51;7.32;;;2.28;;
44720;SDS011;30450;52.534;13.398;2023-03-01T15:51:19;7.43;;;3.42;;
44720;SDS011;30450;52.534;13.398;2023-03-01T15:53:49;4.20;;;3.10;;
44720;SDS011;30450;52.534;13.398;2023-03-01T15:56:15;6.00;;;3.08;;
44720;SDS011;30450;52.534;13.398;2023-03-01T15:58:41;8.10;;;2.90;;
44720;SDS011;30450;52.534;13.398;2023-03-01T16:01:09;6.78;;;3.15;;
44720;SDS011;30450;52.534;13.398;2023-03-01T16:03:38;6.18;;;2.63;;
44720;SDS011;30450;52.534;13.398;2023-03-01T16:06:07;13.95;;;2.72;;
44720;SDS011;30450;52.534;13.398;2023-03-01T16:08:33;5.78;;;3.00;;
44720;SDS011;30450;52.534;13.398;2023-03-01T16:10:59;4.93;;;2.47;;
44720;SDS011;30450;52.534;13.398;2023-03-01T16:13:25;6.55;;;3.17;;
44720;SDS011;30450;52.534;13.398;2023-03-01T16:15:51;5.43;;;3.28;;
44720;SDS011;30450;52.534;13.398;2023-03-01T16:18:16;3.70;;;2.38;;
44720;SDS011;30450;52.534;13.398;2023-03-01T16:20:42;7.20;;;3.40;;
44720;SDS011;30450;52.534;13.398;2023-03-01T16:23:08;7.82;;;2.75;;
44720;SDS011;30450;52.534;13.398;2023-03-01T16:25:35;10.43;;;2.80;;
44720;SDS011;30450;52.534;13.398;2023-03-01T16:28:01;5.05;;;2.67;;
44720;SDS011;30450;52.534;13.398;2023-03-01T16:30:30;6.22;;;3.55;;
44720;SDS011;30450;52.534;13.398;2023-03-01T16:32:56;5.70;;;3.30;;
44720;SDS011;30450;52.534;13.398;2023-03-01T16:35:22;7.13;;;3.00;;